Date,TemperatureHighF,TemperatureAvgF,TemperatureLowF,DewpointHighF,DewpointAvgF,DewpointLowF,HumidityHigh,HumidityAvg,HumidityLow,PressureMaxIn,PressureMinIn,WindSpeedMaxMPH,WindSpeedAvgMPH,GustSpeedMaxMPH,PrecipitationSumIn
2013-1-1,24.7,18.5,12.8,19.1,11.9,8.2,88,76,55,30.38,30.22,11,1,12,0.00
2013-1-2,34.8,24.2,12.9,24.4,17.8,8.4,88,77,64,30.33,30.20,19,3,19,0.03
2013-1-3,36.1,29.2,23.1,27.4,23.0,18.9,89,78,62,30.48,30.32,11,1,11,0.01
2013-1-4,42.3,30.4,18.9,27.4,23.1,17.0,94,76,53,30.47,30.31,15,3,15,0.02
2013-1-5,42.8,36.6,30.9,33.4,28.8,23.9,79,73,68,30.31,30.12,18,4,18,0.00
2013-1-6,39.7,29.6,21.6,23.9,20.3,17.0,84,69,45,30.45,30.23,17,2,17,0.00
2013-1-7,48.6,37.0,26.7,28.9,24.5,20.4,77,62,41,30.37,30.11,21,4,21,0.00
2013-1-8,54.2,42.8,33.3,36.5,31.4,26.9,79,65,45,30.23,30.02,21,4,23,0.00
2013-1-9,54.5,42.5,32.7,35.7,31.9,28.2,85,67,43,30.46,30.23,6,1,7,0.00
2013-1-10,49.4,43.2,37.6,48.6,38.9,28.5,97,86,55,30.39,29.77,15,2,15,0.24
2013-1-11,59.4,54.1,48.6,49.1,47.2,43.8,97,79,59,29.79,29.61,23,6,26,0.00
2013-1-12,58.2,30.8,21.9,43.0,18.8,11.9,80,62,30,30.12,29.74,22,4,22,0.00
2013-1-13,25.8,19.2,13.8,12.0,9.4,6.9,78,66,51,30.44,30.10,15,2,15,0.00
2013-1-14,30.4,19.9,10.8,12.1,9.2,6.5,85,65,37,30.60,30.43,9,1,10,0.00
2013-1-15,32.0,21.7,13.4,13.5,11.2,8.4,85,65,42,30.48,30.25,7,0,7,0.00
2013-1-16,44.9,32.0,19.2,30.2,20.2,10.9,72,62,45,30.26,30.08,16,3,16,0.00
2013-1-17,46.0,36.3,29.1,30.4,26.8,23.7,90,70,44,30.53,30.24,9,1,11,0.00
2013-1-18,55.7,43.6,32.7,33.0,30.0,26.3,79,60,40,30.46,30.06,29,7,33,0.00
2013-1-19,59.8,49.2,41.4,33.9,30.9,27.3,71,51,32,30.27,30.01,26,5,26,0.00
2013-1-20,42.1,28.4,19.8,29.1,12.9,8.7,68,52,40,30.45,30.27,15,3,15,0.00
2013-1-21,21.1,17.7,14.1,11.0,6.3,-0.1,81,62,42,30.52,30.45,14,2,14,0.00
2013-1-22,28.5,19.5,12.5,10.4,6.3,2.0,71,57,43,30.51,30.35,11,2,13,0.00
2013-1-23,46.1,28.9,13.2,24.1,15.9,6.8,79,60,40,30.49,30.25,14,2,16,0.00
2013-1-24,25.6,19.6,8.8,13.0,6.8,0.6,69,57,47,30.58,30.25,17,5,18,0.00
2013-1-25,47.3,33.5,21.4,21.8,17.0,10.8,66,51,35,30.30,30.22,13,1,13,0.00
2013-1-26,55.3,40.5,30.8,27.8,25.0,20.3,71,55,34,30.35,30.14,11,1,11,0.00
2013-1-27,61.4,50.1,38.9,55.3,44.5,26.2,93,82,51,30.14,29.77,23,5,23,0.10
2013-1-28,73.0,65.1,58.0,61.0,57.6,54.8,90,78,57,29.87,29.64,26,6,27,0.00
2013-1-29,68.1,49.7,35.4,61.6,46.6,33.8,96,90,78,29.65,29.46,27,4,28,1.70
2013-1-30,35.6,26.9,22.3,34.3,22.2,14.5,95,82,70,30.04,29.48,26,5,27,0.03
2013-1-31,24.2,17.6,8.8,19.2,8.7,-0.8,83,68,53,30.57,30.01,25,4,26,0.00
2013-2-1,25.3,17.3,6.0,15.9,7.3,-0.5,76,65,54,30.58,30.24,15,2,16,0.00
2013-2-2,46.1,36.2,25.0,34.1,26.1,15.7,76,67,59,30.29,30.12,17,3,17,0.00
2013-2-3,46.9,39.5,32.5,32.6,24.5,16.8,73,56,35,30.33,29.89,17,3,19,0.00
2013-2-4,48.4,38.1,23.3,31.6,27.4,20.8,90,67,49,30.03,29.82,18,3,18,0.00
2013-2-5,56.5,38.8,21.9,34.6,27.2,19.6,93,67,38,30.15,29.95,15,2,15,0.00
2013-2-6,61.8,47.0,33.4,41.5,34.0,26.1,81,62,43,30.15,29.92,17,2,17,0.00
2013-2-7,50.6,42.7,32.3,46.1,38.8,27.8,96,86,64,30.23,29.89,17,2,19,0.87
2013-2-8,41.1,32.6,29.0,31.2,27.5,25.7,89,82,65,30.40,30.23,11,1,11,0.00
2013-2-9,47.9,36.3,28.4,36.6,30.8,25.8,92,81,58,30.30,29.81,14,2,14,0.05
2013-2-10,52.0,44.6,36.9,46.8,35.0,23.9,96,71,49,29.94,29.50,32,9,32,0.08
2013-2-11,47.2,38.2,31.6,27.2,24.7,22.3,73,59,41,30.21,29.94,24,4,24,0.00
2013-2-12,41.1,34.2,26.7,29.0,25.0,21.1,85,69,53,30.22,30.00,5,0,5,0.00
2013-2-13,54.6,41.4,28.5,28.9,25.8,23.5,82,56,33,30.00,29.84,17,3,18,0.00
2013-2-14,49.2,42.5,36.1,32.0,27.9,22.6,72,57,42,30.20,29.86,15,3,18,0.00
2013-2-15,37.5,30.0,22.0,27.5,16.5,7.2,91,59,33,30.42,30.20,18,3,18,0.00
2013-2-16,33.5,28.1,17.9,22.5,20.2,14.7,90,73,58,30.38,30.13,15,2,15,0.02
2013-2-17,56.9,42.7,25.7,35.3,28.2,20.1,80,58,42,30.14,29.72,16,2,16,0.00
2013-2-18,54.8,43.4,28.5,48.1,32.9,16.8,90,67,47,30.11,29.57,24,6,25,0.13
2013-2-19,34.1,26.6,21.8,17.6,9.7,1.6,73,51,27,30.42,30.11,22,3,22,0.00
2013-2-20,24.4,20.1,14.5,14.5,8.8,2.2,72,61,47,30.47,30.27,14,4,14,0.00
2013-2-21,25.8,22.8,20.3,24.3,19.4,13.5,94,87,71,30.29,29.83,24,5,28,0.00
2013-2-22,29.5,24.0,17.7,23.2,19.3,14.0,94,83,65,30.15,29.84,17,3,17,0.00
2013-2-23,35.4,23.3,10.6,19.9,15.6,8.2,92,74,50,30.15,30.02,11,1,12,0.07
2013-2-24,47.2,32.5,18.9,28.5,23.1,16.6,92,70,47,30.11,29.97,14,3,14,0.01
2013-2-25,38.1,33.0,28.4,31.6,27.0,23.1,94,79,64,30.03,29.70,22,7,23,0.03
2013-2-26,32.8,31.7,30.3,31.3,30.6,29.0,96,96,94,29.89,29.59,25,1,25,0.05
2013-2-27,32.9,30.5,28.0,29.0,27.2,25.8,95,88,76,30.09,29.88,0,0,0,0.00
2013-2-28,32.4,30.0,26.9,27.9,25.4,23.0,86,83,77,30.26,30.08,12,2,13,0.00
2013-3-1,30.9,28.0,26.2,25.5,22.9,21.2,85,81,72,30.37,30.23,13,2,13,0.00
2013-3-2,36.7,27.7,22.3,21.6,18.8,15.6,83,70,50,30.43,30.25,9,1,9,0.04
2013-3-3,43.9,34.4,23.8,28.3,24.0,18.5,80,67,51,30.25,29.83,14,2,14,0.17
2013-3-4,49.2,40.2,33.3,33.8,30.5,27.3,89,68,55,29.98,29.71,15,2,15,0.01
2013-3-5,36.3,31.8,28.1,32.7,22.2,16.9,94,68,55,30.39,29.98,26,6,26,0.05
2013-3-6,38.7,29.7,23.5,22.7,20.0,17.1,79,68,51,30.49,30.35,12,2,12,0.00
2013-3-7,47.9,34.7,22.7,30.3,25.0,18.4,84,69,49,30.37,30.20,13,2,13,0.00
2013-3-8,56.4,44.5,32.5,39.3,34.1,27.3,81,68,51,30.28,30.02,12,2,12,0.00
2013-3-9,58.9,50.3,44.0,54.4,45.3,38.7,98,84,63,30.03,29.61,20,2,20,0.71
2013-3-10,54.4,41.7,27.6,53.6,40.0,24.5,98,94,88,29.91,29.56,18,4,18,0.14
2013-3-11,36.1,29.3,25.7,24.5,22.6,20.8,88,77,55,30.07,29.88,17,4,19,0.00
2013-3-12,46.3,36.0,28.5,28.4,23.8,21.3,80,62,40,30.38,30.07,24,3,24,0.00
2013-3-13,46.4,34.1,24.5,24.8,21.1,18.9,79,60,35,30.53,30.38,10,2,11,0.00
2013-3-14,71.0,51.8,34.2,42.0,32.6,23.6,68,50,30,30.38,30.08,18,3,19,0.00
2013-3-15,80.0,61.7,43.5,49.0,42.7,36.1,77,53,29,30.11,29.65,20,3,20,0.00
2013-3-16,63.7,43.7,36.6,46.0,34.7,28.0,85,71,52,30.10,29.67,20,6,21,0.00
2013-3-17,36.5,33.0,31.3,32.2,29.0,25.7,94,85,71,30.11,29.81,18,6,19,0.16
2013-3-18,52.2,41.1,33.6,36.3,28.6,17.8,96,66,29,30.10,29.79,21,4,21,0.01
2013-3-19,39.4,34.6,30.6,34.6,24.0,14.2,95,67,37,30.30,30.09,11,1,12,0.00
2013-3-20,37.4,31.0,23.6,33.7,13.4,5.7,95,50,29,30.45,30.18,18,3,22,0.00
2013-3-21,29.3,26.4,24.0,25.6,17.6,10.8,87,70,53,30.18,29.98,12,1,13,0.00
2013-3-22,33.4,31.1,28.6,29.4,27.6,25.6,90,87,81,30.07,30.00,12,4,12,0.00
2013-3-23,38.7,33.7,31.8,31.7,29.4,27.0,96,85,64,30.09,29.90,20,6,20,0.08
2013-3-24,32.0,28.8,24.4,31.0,26.1,17.9,96,90,76,30.13,29.84,21,5,25,0.01
2013-3-25,33.2,27.5,21.4,27.8,22.5,17.6,91,82,69,30.39,30.10,19,4,19,0.02
2013-3-26,39.6,29.7,21.0,23.5,21.0,18.5,91,71,48,30.48,30.36,11,2,11,0.14
2013-3-27,49.1,36.9,24.5,32.4,26.7,19.8,83,68,46,30.38,30.26,11,2,11,0.00
2013-3-28,63.9,49.9,36.6,42.0,36.7,31.5,83,62,41,30.28,30.15,12,2,12,0.00
2013-3-29,67.0,53.9,40.2,44.0,39.4,36.1,85,61,33,30.24,30.11,13,3,15,0.00
2013-3-30,63.8,54.8,50.1,55.6,49.2,39.1,96,82,62,30.11,29.87,11,1,18,0.02
2013-3-31,65.3,55.2,46.8,51.1,40.3,27.6,97,62,29,30.00,29.92,16,2,18,0.01
2013-4-1,50.3,40.4,33.8,33.6,21.5,11.9,81,49,27,30.33,29.99,16,4,16,0.00
2013-4-2,48.9,38.6,29.0,23.5,20.3,16.6,67,49,33,30.40,30.29,13,2,14,0.00
2013-4-3,49.9,41.7,32.3,26.3,23.0,18.4,69,49,33,30.42,30.27,17,4,17,0.00
2013-4-4,62.4,49.6,38.6,27.7,24.8,21.8,61,39,23,30.28,30.08,13,1,15,0.00
2013-4-5,69.6,56.2,42.4,43.0,37.1,24.5,67,50,37,30.20,29.88,17,3,19,0.00
2013-4-6,75.5,63.4,55.0,50.5,44.3,38.9,62,51,30,29.88,29.65,31,7,32,0.00
2013-4-7,73.0,61.6,47.9,55.2,47.4,40.7,94,62,40,29.87,29.65,14,2,18,0.45
2013-4-8,73.7,64.2,55.0,62.2,58.6,52.7,96,83,67,29.74,29.67,19,2,21,0.51
2013-4-9,71.5,67.4,64.5,63.1,60.2,57.9,93,78,71,29.77,29.64,14,2,14,0.61
2013-4-10,65.1,43.8,39.2,62.3,42.0,37.8,96,94,86,29.93,29.69,24,3,24,1.07
2013-4-11,40.3,36.5,33.6,37.8,29.7,26.8,95,77,60,29.83,29.76,22,5,22,0.00
2013-4-12,52.5,40.4,32.6,33.9,30.0,26.2,83,67,47,30.07,29.81,19,4,19,0.00
2013-4-13,64.5,49.3,34.2,44.5,37.3,30.6,89,65,46,30.11,29.76,16,2,16,0.00
2013-4-14,73.7,62.7,53.2,57.0,48.3,35.1,88,61,42,29.76,29.48,32,6,33,0.21
2013-4-15,58.1,49.1,44.5,44.1,37.4,31.9,91,65,42,30.02,29.70,14,2,14,0.14
2013-4-16,46.1,43.6,41.3,37.5,34.3,31.3,77,70,60,30.18,30.02,19,7,20,0.01
2013-4-17,52.2,48.0,44.9,51.4,45.9,37.5,97,93,75,30.11,29.67,16,3,16,1.08
2013-4-18,47.3,40.0,36.5,46.8,36.2,27.8,98,87,69,29.97,29.55,27,5,27,0.46
2013-4-19,51.7,41.1,32.3,27.9,25.4,18.3,77,56,29,30.14,29.95,25,5,26,0.00
2013-4-20,55.4,44.9,29.8,35.2,28.9,22.8,78,54,41,30.30,30.14,15,2,15,0.00
2013-4-21,67.7,56.9,47.1,44.7,39.6,31.9,72,53,39,30.26,30.11,19,3,19,0.00
2013-4-22,67.5,56.8,47.9,48.0,42.9,39.5,84,61,44,30.16,29.91,16,2,16,0.00
2013-4-23,52.6,37.1,33.5,48.9,34.4,31.1,93,90,78,30.22,30.00,19,3,23,0.62
2013-4-24,54.1,41.5,30.1,33.1,28.9,22.3,94,64,36,30.32,30.19,17,3,17,0.03
2013-4-25,68.5,54.1,38.6,41.8,36.2,28.4,80,54,31,30.35,30.16,16,2,17,0.00
2013-4-26,55.8,51.1,47.5,48.3,45.7,39.6,95,82,55,30.24,30.17,22,2,22,0.43
2013-4-27,53.4,49.4,46.7,49.5,47.4,45.6,96,93,85,30.23,30.03,10,2,10,0.42
2013-4-28,73.9,58.8,42.9,56.9,50.7,41.8,98,77,47,30.03,29.81,14,2,14,0.01
2013-4-29,83.3,70.0,56.8,64.7,58.3,51.6,84,68,51,29.82,29.62,21,4,23,0.00
2013-4-30,73.0,70.2,67.4,57.0,55.4,53.8,69,60,52,29.72,29.64,24,7,24,0.00
2013-5-1,50.7,47.4,45.4,42.0,40.0,38.3,78,75,72,30.15,30.11,18,3,19,0.00
2013-5-2,45.3,37.6,32.3,39.3,35.3,30.8,96,92,75,30.41,30.15,20,3,20,0.43
2013-5-3,38.1,35.4,32.6,35.4,33.8,31.5,96,94,89,30.37,29.95,16,2,17,0.85
2013-5-4,46.6,40.1,33.0,42.4,37.3,31.7,96,90,78,30.07,29.88,12,2,13,0.14
2013-5-5,55.9,49.8,44.0,50.2,47.0,42.4,97,90,80,30.14,30.04,12,2,12,0.02
2013-5-6,69.4,57.3,50.6,55.5,51.5,48.3,94,82,58,30.13,30.03,10,1,10,0.00
2013-5-7,77.2,63.7,49.0,57.5,51.0,46.3,96,68,36,30.10,29.97,10,1,10,0.00
2013-5-8,74.8,64.7,55.9,59.6,55.5,50.1,91,73,55,30.01,29.89,17,1,17,0.04
2013-5-9,75.3,65.1,58.6,62.2,58.5,54.1,97,81,50,29.92,29.83,16,1,16,0.29
2013-5-10,67.0,58.8,53.8,57.6,52.5,48.6,93,81,54,30.05,29.89,11,1,11,0.00
2013-5-11,65.8,57.5,48.3,50.1,37.6,26.3,91,52,25,30.25,30.05,24,2,24,0.00
2013-5-12,67.3,54.6,38.3,39.9,30.5,23.3,82,43,23,30.30,30.15,10,1,10,0.00
2013-5-13,77.8,63.1,45.3,56.5,48.4,39.6,87,61,41,30.18,29.93,15,2,15,0.00
2013-5-14,91.8,78.2,65.0,57.7,52.7,46.1,73,45,21,29.94,29.76,24,4,24,0.00
2013-5-15,86.4,75.7,66.9,67.4,60.3,52.6,83,60,45,29.87,29.77,17,4,18,0.00
2013-5-16,80.2,70.2,60.4,65.3,61.4,58.1,93,75,53,29.88,29.78,16,1,16,0.00
2013-5-17,79.3,68.0,59.7,64.0,60.8,58.1,95,79,55,29.92,29.84,7,0,8,0.00
2013-5-18,84.5,74.0,60.7,70.9,65.8,58.7,94,77,59,29.91,29.71,13,1,13,0.00
2013-5-19,84.4,71.1,61.6,71.1,64.8,59.1,96,81,61,29.84,29.52,24,3,25,0.90
2013-5-27,80.4,77.5,75.9,69.6,68.0,66.6,75,73,69,29.72,29.67,21,4,21,2.36
2013-5-28,76.9,73.4,70.5,73.0,68.1,66.0,93,83,73,29.80,29.63,18,3,21,0.08
2013-5-29,81.8,74.1,65.1,71.0,65.7,60.1,92,76,64,29.82,29.62,23,4,27,0.04
2013-5-30,73.8,64.1,61.6,65.6,61.5,60.1,96,91,72,29.76,29.59,20,3,22,1.89
2013-5-31,78.3,66.7,58.2,69.1,63.5,56.6,98,90,69,29.77,29.65,13,1,14,1.30
2013-6-1,69.7,65.0,60.5,64.9,57.0,51.3,94,76,56,29.97,29.67,16,2,17,0.00
2013-6-2,63.9,58.1,50.6,53.9,50.4,47.4,89,76,58,30.09,29.96,8,1,12,0.00
2013-6-3,73.7,61.4,46.0,58.0,52.2,44.3,95,73,54,30.10,29.90,11,1,11,0.00
2013-6-4,76.2,65.6,61.3,67.3,60.7,56.2,95,84,69,29.99,29.85,10,1,12,0.22
2013-6-5,66.0,63.1,60.5,64.7,61.6,58.8,97,95,92,29.98,29.91,11,0,11,0.85
2013-6-6,74.0,66.3,58.2,61.5,56.4,51.9,96,72,47,29.97,29.90,9,1,10,0.00
2013-6-7,73.7,64.7,55.5,57.2,53.9,50.4,93,70,46,30.00,29.90,10,1,12,0.00
2013-6-8,79.9,68.4,53.5,63.4,57.5,50.8,91,70,52,29.95,29.75,22,2,22,0.00
2013-6-9,80.5,69.7,61.9,64.3,59.9,52.3,97,74,41,29.84,29.74,19,2,23,0.46
2013-6-10,88.3,73.3,59.9,63.9,60.3,56.4,89,66,38,29.88,29.80,10,1,10,0.00
2013-6-11,93.6,81.7,70.8,69.9,66.5,62.3,85,62,37,29.86,29.74,20,3,22,0.00
2013-6-12,93.4,84.1,74.4,72.8,69.9,60.9,84,64,46,29.87,29.72,22,4,23,0.00
2013-6-13,85.0,73.7,63.0,64.2,60.3,54.3,78,64,46,30.03,29.87,14,1,16,0.00
2013-6-14,87.7,77.3,66.0,73.6,67.3,62.5,90,73,56,30.00,29.85,16,1,16,0.00
2013-6-15,89.7,75.0,66.4,76.8,68.9,64.0,96,82,60,29.98,29.84,23,2,23,1.04
2013-6-16,80.8,72.5,65.7,73.3,69.4,64.8,98,90,76,29.95,29.87,9,1,9,0.00
2013-6-17,77.0,71.0,66.3,69.9,67.3,62.6,97,88,76,29.97,29.87,15,1,15,0.15
2013-6-18,83.8,73.2,64.8,70.6,64.8,59.2,98,78,44,30.01,29.95,10,1,10,0.01
2013-6-19,86.6,75.9,63.2,71.9,66.5,62.3,97,75,51,30.02,29.92,11,1,13,0.01
2013-6-20,88.9,79.3,67.7,75.1,70.4,65.6,94,75,62,29.99,29.87,18,2,19,0.00
2013-6-21,90.7,82.3,75.5,76.8,72.5,70.0,85,73,57,29.95,29.86,21,4,24,0.00
2013-6-22,91.1,82.6,73.4,74.9,71.0,68.2,85,69,50,29.96,29.81,20,3,20,0.00
2013-6-23,90.4,81.2,73.1,76.5,71.8,69.0,87,74,55,29.92,29.76,11,3,18,0.00
2013-6-24,89.7,81.4,72.5,74.9,70.2,66.1,87,70,52,29.93,29.75,21,4,24,0.00
2013-6-25,87.3,80.3,74.1,74.6,70.7,68.1,92,73,60,29.86,29.69,23,4,23,0.10
2013-6-26,97.4,85.0,75.0,75.7,68.4,57.0,86,61,27,29.84,29.68,14,2,16,0.00
2013-6-27,88.7,76.2,68.7,75.7,69.9,65.2,96,82,57,29.99,29.78,20,1,21,1.23
2013-6-28,86.5,76.6,66.6,72.8,64.4,56.4,98,70,40,29.92,29.82,16,1,16,0.02
2013-6-29,81.6,73.8,65.6,62.8,59.0,55.6,78,61,42,29.84,29.77,24,2,24,0.00
2013-6-30,77.8,70.4,61.8,61.7,58.1,55.5,82,66,51,30.02,29.85,13,2,14,0.00
2013-7-1,81.5,71.4,60.4,58.8,54.3,50.1,79,57,36,30.09,30.01,18,2,18,0.00
2013-7-2,81.8,71.4,58.6,59.2,54.4,49.3,82,57,36,30.11,30.02,12,1,14,0.00
2013-7-3,86.3,69.6,59.2,63.2,57.5,52.6,97,69,33,30.07,29.97,12,1,12,1.54
2013-7-4,86.2,72.4,57.5,65.9,59.2,54.7,98,68,36,30.04,29.94,9,1,9,0.01
2013-7-5,88.5,76.8,63.7,67.4,61.9,58.8,85,62,40,29.99,29.87,12,1,14,0.00
2013-7-6,87.8,77.0,67.6,69.8,64.3,61.3,82,66,48,29.96,29.87,18,2,18,0.00
2013-7-7,89.5,80.2,71.3,72.7,67.9,64.4,86,67,50,29.95,29.88,16,2,17,0.01
2013-7-8,93.0,82.9,75.6,74.9,69.1,65.2,75,64,49,30.00,29.92,13,2,13,0.00
2013-7-9,96.5,85.2,76.8,77.5,72.5,68.5,77,67,50,29.97,29.80,14,2,15,0.00
2013-7-10,90.2,83.8,76.4,73.3,67.9,59.1,73,60,36,29.99,29.84,12,2,14,0.00
2013-7-11,86.1,76.7,67.1,63.2,60.8,57.7,81,59,41,30.06,29.95,12,2,12,0.00
2013-7-12,87.9,77.7,67.0,67.7,62.1,58.6,79,60,45,30.04,29.94,10,1,12,0.00
2013-7-13,89.8,77.7,67.8,70.0,63.5,58.8,75,62,49,30.02,29.93,11,1,11,0.00
2013-7-14,86.3,76.8,64.9,65.7,61.9,57.9,84,62,40,30.08,29.97,14,1,14,0.00
2013-7-15,88.0,78.4,69.4,71.3,67.7,63.1,88,71,53,30.16,30.07,10,1,12,0.00
2013-7-16,93.8,82.2,70.7,74.9,69.9,67.1,92,68,42,30.23,30.14,8,0,8,0.00
2013-7-17,91.5,81.2,72.6,74.6,71.4,68.5,89,73,51,30.28,30.15,12,0,12,0.01
2013-7-18,95.3,84.3,72.0,72.8,69.7,65.7,93,64,39,30.17,29.95,14,1,14,0.00
2013-7-19,96.8,86.4,74.5,71.4,67.5,65.1,76,55,37,29.96,29.80,12,1,13,0.00
2013-7-20,86.0,79.9,75.2,73.6,70.3,66.8,87,73,57,29.89,29.81,10,1,11,0.00
2013-7-21,88.7,78.0,70.3,73.0,69.9,68.2,95,78,52,29.88,29.77,12,1,12,0.05
2013-7-22,94.2,81.0,68.9,75.4,70.3,66.8,95,72,48,29.82,29.73,15,1,15,0.00
2013-7-23,84.0,78.0,71.6,73.8,69.1,61.9,91,75,58,29.90,29.75,11,2,11,0.00
2013-7-24,85.2,74.9,65.8,62.5,60.3,58.3,81,62,42,30.02,29.89,6,2,11,0.00
2013-7-25,86.0,73.5,65.1,69.7,64.6,59.5,94,75,47,30.08,29.98,8,0,11,0.18
2013-7-26,85.9,74.4,68.5,72.1,65.1,52.1,94,75,42,30.03,29.94,9,1,11,0.07
2013-7-27,77.5,67.8,57.4,56.6,52.7,47.8,85,60,40,30.10,29.96,12,1,13,0.00
2013-7-28,77.2,67.3,55.5,56.8,52.6,47.7,87,61,37,30.06,30.00,8,0,9,0.00
2013-7-29,69.5,66.1,61.1,68.9,62.8,55.1,98,89,69,30.09,29.97,11,1,12,0.61
2013-7-30,82.0,74.6,69.5,76.4,71.8,68.9,99,92,76,30.03,29.96,10,1,10,0.12
2013-7-31,82.8,75.2,69.1,70.7,67.8,65.5,95,79,58,30.09,30.00,8,1,8,0.00
2013-8-1,88.8,77.1,65.1,71.0,66.6,63.3,96,73,46,30.08,29.93,7,0,9,0.00
2013-8-2,83.0,74.9,65.6,74.6,70.3,63.1,96,86,75,29.96,29.83,8,1,9,0.33
2013-8-3,82.6,75.9,71.5,72.6,70.6,68.5,93,84,68,30.09,29.87,10,2,12,0.00
2013-8-4,74.6,70.5,67.3,70.8,66.1,61.1,97,86,75,30.12,30.00,9,1,9,0.13
2013-8-5,86.0,76.1,69.5,75.5,71.8,68.5,98,87,69,30.03,29.79,7,0,8,0.00
2013-8-6,89.2,78.5,69.7,76.9,73.3,68.8,98,85,65,29.86,29.75,17,1,19,1.16
2013-8-7,86.5,78.0,70.9,77.3,72.5,66.0,97,84,66,29.92,29.74,18,1,18,1.12
2013-8-8,74.8,70.9,67.2,67.8,65.7,63.3,91,84,74,29.99,29.85,15,2,15,0.00
2013-8-9,73.5,70.3,66.3,69.8,66.3,63.9,94,87,81,30.09,29.97,6,0,6,0.06
2013-8-10,82.0,73.0,65.5,67.1,63.9,60.3,96,75,50,30.18,30.07,13,1,13,0.00
2013-8-11,86.8,74.7,61.8,70.4,64.9,58.2,88,73,53,30.12,29.98,9,0,9,0.00
2013-8-12,83.5,74.6,67.7,71.2,68.8,66.5,97,83,61,30.01,29.92,9,1,9,0.65
2013-8-13,78.5,71.8,66.6,68.7,62.4,58.1,91,74,52,30.10,29.99,11,1,11,0.00
2013-8-14,78.3,69.0,61.3,61.5,58.5,54.5,88,70,50,30.19,30.08,10,1,10,0.00
2013-8-15,74.0,66.7,60.6,61.5,58.0,54.3,86,74,58,30.12,29.99,10,1,10,0.00
2013-8-16,75.5,67.5,61.3,60.8,57.1,55.3,83,70,54,30.15,30.07,12,1,12,0.00
2013-8-17,77.8,67.5,57.1,60.2,56.8,54.1,91,71,47,30.20,30.09,11,1,12,0.00
2013-8-18,83.0,70.5,58.8,65.3,60.6,55.6,92,73,49,30.16,30.05,12,0,12,0.00
2013-8-19,84.8,73.4,61.8,68.3,64.2,60.4,96,75,50,30.10,29.98,11,1,11,0.00
2013-8-20,88.0,76.8,66.5,69.1,66.0,62.1,88,71,47,30.05,29.96,14,1,14,0.00
2013-8-21,89.3,77.7,66.6,72.1,68.6,64.5,94,75,51,30.05,29.96,12,1,13,0.00
2013-8-22,89.8,79.6,70.1,73.6,70.2,66.9,92,74,53,30.07,29.98,7,0,7,0.00
2013-8-23,90.8,79.8,69.8,74.5,69.6,66.3,95,73,46,30.06,29.97,9,0,9,0.00
2013-8-24,90.9,80.1,70.1,74.9,70.6,67.5,94,75,51,30.10,30.01,15,1,15,0.00
2013-8-25,92.2,80.9,70.5,75.8,70.6,67.2,90,72,49,30.18,30.07,11,1,12,0.00
2013-8-26,93.8,82.5,72.2,74.0,71.1,68.7,89,70,48,30.14,30.01,17,2,17,0.00
2013-8-27,92.6,82.4,73.2,70.8,67.8,63.8,82,63,41,30.03,29.93,16,2,17,0.00
2013-8-28,92.5,81.1,68.4,73.1,69.1,65.2,91,69,48,30.01,29.95,10,1,10,0.00
2013-8-29,95.5,83.1,71.4,75.5,71.9,69.5,94,71,45,30.01,29.90,12,1,12,0.00
2013-8-30,99.3,86.7,76.2,73.6,70.4,64.4,81,61,34,29.92,29.78,14,1,14,0.00
2013-8-31,91.5,82.8,76.8,77.2,73.0,68.1,90,73,48,29.81,29.73,11,0,12,0.00
2013-9-1,86.8,76.9,68.1,75.4,69.3,60.9,97,79,54,29.92,29.72,27,1,27,0.21
2013-9-2,82.3,72.5,62.4,63.2,60.3,57.3,89,67,45,30.03,29.92,11,1,11,0.00
2013-9-3,85.3,72.1,60.6,60.9,58.2,55.3,84,64,40,30.09,30.00,10,1,10,0.00
2013-9-4,86.5,73.0,60.4,64.6,60.5,55.4,92,68,37,30.15,30.04,8,0,8,0.00
2013-9-5,89.0,74.9,62.2,66.6,62.2,59.4,92,67,40,30.19,30.08,10,1,11,0.00
2013-9-6,89.5,76.6,63.5,66.3,63.3,60.1,90,66,44,30.12,29.96,11,1,11,0.00
2013-9-7,96.5,82.1,69.4,70.9,66.7,61.3,81,62,41,29.98,29.83,14,2,16,0.00
2013-9-8,100.8,87.4,76.2,71.3,68.0,66.1,72,55,35,29.86,29.76,14,2,14,0.00
2013-9-9,95.8,84.7,75.9,68.6,64.9,60.3,72,53,32,29.90,29.82,19,2,19,0.00
2013-9-10,94.3,82.6,72.3,68.7,65.5,64.0,76,58,39,30.03,29.90,18,2,18,0.00
2013-9-11,94.6,81.4,68.3,66.2,63.3,59.7,81,57,34,30.09,29.98,11,1,12,0.00
2013-9-12,86.0,76.9,69.6,69.5,63.7,47.3,87,66,42,30.12,30.01,12,1,12,0.00
2013-9-13,76.0,66.7,59.2,53.1,49.1,46.3,69,54,37,30.17,30.04,10,2,11,0.00
2013-9-14,78.8,66.4,52.5,54.0,50.3,45.8,79,58,40,30.11,29.94,13,1,15,0.00
2013-9-15,84.2,70.7,63.4,67.4,60.1,52.3,91,70,54,30.11,29.92,16,2,16,0.12
2013-9-16,64.1,59.8,58.5,60.6,57.7,56.3,96,93,87,30.25,30.10,16,3,16,0.19
2013-9-17,69.8,64.4,60.2,67.9,63.2,59.1,98,96,90,30.20,29.98,11,1,13,0.64
2013-9-18,88.0,76.2,66.8,73.0,69.1,65.0,98,80,57,29.98,29.79,19,4,20,0.00
2013-9-19,91.5,77.9,66.8,71.9,68.0,64.9,97,74,42,29.89,29.70,21,4,22,2.27
2013-9-20,69.0,62.9,54.6,66.0,54.0,49.1,97,74,51,30.03,29.86,15,1,15,0.00
2013-9-21,73.7,61.0,50.3,53.2,49.0,44.6,90,67,39,30.05,29.92,7,0,7,0.00
2013-9-22,76.3,63.3,50.9,54.0,50.8,48.1,91,66,40,30.00,29.87,10,0,10,0.00
2013-9-23,76.9,64.2,51.8,56.5,53.0,49.8,94,70,43,29.95,29.79,18,1,18,0.00
2013-9-24,70.0,64.1,60.6,60.6,57.4,55.3,91,79,66,29.84,29.76,12,1,12,0.00
2013-9-25,78.1,66.4,56.4,64.5,60.2,55.3,97,82,60,29.90,29.82,10,0,10,0.00
2013-9-26,84.0,70.9,59.6,64.9,61.0,57.9,96,74,45,29.92,29.84,16,1,16,0.01
2013-9-27,85.3,73.8,64.7,68.2,62.8,60.7,88,70,47,29.96,29.84,15,2,16,0.00
2013-9-28,72.0,64.1,54.1,65.9,59.0,52.8,97,84,69,30.08,29.80,17,2,19,0.37
2013-9-29,72.6,59.4,47.0,58.9,51.3,46.2,98,78,44,30.12,29.96,5,0,7,0.01
2013-9-30,77.2,62.9,49.6,62.7,56.5,48.3,97,81,58,29.97,29.82,14,1,14,0.00
2013-10-1,82.3,69.2,60.4,68.1,63.2,58.3,97,82,59,29.96,29.85,10,1,10,0.01
2013-10-2,83.8,70.9,61.2,71.4,65.6,59.8,97,84,60,30.01,29.86,11,1,11,0.00
2013-10-3,84.4,73.0,64.5,72.7,67.7,61.9,96,85,64,29.91,29.72,19,3,20,0.07
2013-10-4,86.3,75.9,67.3,71.9,67.8,63.1,93,77,56,29.87,29.72,23,4,25,0.29
2013-10-5,67.3,53.7,46.1,65.4,43.0,37.2,94,68,47,30.01,29.85,15,2,17,0.15
2013-10-6,59.7,50.8,42.2,45.5,40.8,35.2,83,69,55,30.02,29.87,18,3,19,0.00
2013-10-7,71.0,55.9,43.8,49.3,44.5,39.2,89,68,40,30.17,30.02,7,0,8,0.00
2013-10-8,75.2,60.4,45.3,54.0,48.0,42.6,93,67,37,30.13,30.03,16,2,16,0.00
2013-10-9,75.5,62.1,50.0,54.4,49.5,46.5,90,66,40,30.12,30.02,13,1,13,0.00
2013-10-10,78.1,62.4,48.4,59.4,52.3,46.6,95,72,45,30.08,29.88,14,1,14,0.00
2013-10-11,75.0,65.6,55.9,65.5,59.5,52.3,91,81,71,29.89,29.76,22,2,22,0.18
2013-10-12,69.2,59.0,50.0,58.7,46.2,38.3,93,65,39,30.26,29.84,11,0,11,0.00
2013-10-13,68.8,57.9,48.0,44.2,39.1,36.9,71,51,32,30.42,30.26,14,2,14,0.00
2013-10-14,68.2,58.7,52.1,58.6,46.3,36.3,92,65,46,30.31,29.90,19,2,23,0.09
2013-10-15,60.5,54.5,46.2,57.6,46.5,38.1,95,75,54,30.08,29.87,17,3,18,0.08
2013-10-16,58.9,50.1,42.8,45.9,41.3,37.9,86,72,54,30.13,30.00,12,1,12,0.00
2013-10-17,65.2,52.8,41.9,46.8,42.5,37.8,94,71,42,30.03,29.91,14,1,14,0.02
2013-10-18,48.4,41.1,36.6,41.1,36.8,33.8,95,85,65,30.16,30.03,8,1,9,0.18
2013-10-19,60.1,45.3,33.5,42.2,36.9,32.5,96,76,43,30.13,29.93,14,1,16,0.00
2013-10-20,69.7,56.2,46.2,46.7,42.6,39.1,78,62,37,29.94,29.80,16,2,16,0.00
2013-10-21,56.3,47.3,40.9,44.7,35.9,30.8,85,66,43,30.14,29.94,12,1,12,0.00
2013-10-22,60.6,49.5,39.0,46.8,39.1,33.6,81,68,52,30.13,29.93,20,2,20,0.00
2013-10-23,50.4,41.8,33.7,37.5,34.0,31.0,93,75,54,30.21,30.09,11,0,11,0.00
2013-10-24,50.2,41.6,32.7,36.1,30.7,25.3,89,67,40,30.48,30.19,12,1,13,0.00
2013-10-25,56.4,42.2,27.7,32.2,28.1,24.8,93,62,30,30.52,30.19,16,1,17,0.00
2013-10-26,60.7,49.5,40.1,43.4,36.2,31.0,83,62,37,30.20,30.11,11,1,12,0.00
2013-10-27,62.8,46.1,29.8,37.0,32.1,28.0,95,63,32,30.19,29.98,12,1,12,0.00
2013-10-28,67.5,50.5,36.7,54.5,43.6,31.3,91,78,60,30.17,30.03,7,0,11,0.00
2013-10-29,64.3,57.1,50.7,64.0,55.9,47.3,99,96,84,30.16,29.95,10,1,10,0.98
2013-10-30,66.5,64.6,61.6,66.1,63.9,60.9,99,98,87,29.98,29.71,19,3,19,2.66
2013-10-31,61.8,51.0,45.6,61.2,49.9,44.3,98,96,86,29.71,29.55,11,1,12,0.89
2013-11-1,59.4,49.8,42.2,45.1,41.4,38.8,90,74,49,30.00,29.66,14,2,16,0.00
2013-11-2,55.1,46.0,38.3,40.6,37.2,33.6,87,73,46,30.22,29.99,14,2,14,0.00
2013-11-3,59.7,47.6,33.9,41.1,37.2,31.5,93,70,45,30.21,29.95,22,2,22,0.00
2013-11-4,58.9,55.1,49.5,51.4,46.6,41.0,84,73,63,30.12,29.93,21,2,21,0.00
2013-11-5,56.1,55.3,53.7,53.4,51.9,51.1,94,88,84,30.12,29.90,15,2,15,0.68
2013-11-6,53.1,39.4,34.3,50.2,35.7,32.1,95,87,70,30.38,29.90,16,2,18,0.26
2013-11-7,34.4,34.2,34.1,32.2,32.1,31.9,92,92,92,30.38,30.38,2,0,3,0.00
2013-11-9,65.7,57.3,48.0,39.4,35.0,32.6,57,44,31,30.32,30.15,9,0,9,0.00
2013-11-10,59.2,49.4,39.3,38.3,33.2,28.4,73,55,33,30.45,30.24,10,1,10,0.00
2013-11-11,61.1,47.0,27.4,51.1,38.4,17.5,89,72,58,30.66,30.19,22,2,22,0.00
2013-11-12,34.1,25.1,17.4,17.8,14.0,10.0,81,64,37,30.93,30.66,16,1,16,0.00
2013-11-13,48.7,34.6,19.3,24.0,17.8,13.4,82,53,28,30.76,30.24,18,4,19,0.00
2013-11-14,54.9,44.1,34.3,29.3,26.7,23.7,67,51,35,30.24,30.00,21,5,21,0.00
2013-11-15,58.2,49.8,43.1,46.1,38.9,28.9,85,67,51,30.01,29.77,17,3,17,0.00
2013-11-16,68.3,61.5,50.4,60.2,55.8,46.1,89,82,72,29.78,29.43,33,9,33,0.01
2013-11-17,67.3,60.2,46.9,61.3,41.1,18.4,86,54,17,30.07,29.33,29,7,30,0.00
2013-11-18,57.2,45.4,36.4,35.8,30.8,24.8,87,60,32,30.32,30.07,11,1,11,0.00
2013-11-19,61.2,48.3,36.5,31.7,28.0,24.9,72,48,26,30.29,30.03,19,2,21,0.00
2013-11-20,50.2,45.1,39.4,41.9,33.8,20.4,90,68,32,30.04,29.91,20,2,20,0.21
2013-11-21,49.4,41.5,28.7,46.8,38.7,26.6,94,90,81,30.46,30.00,15,2,16,0.17
2013-11-22,30.7,26.8,23.2,26.6,23.2,19.3,92,86,81,30.70,30.46,14,2,15,0.00
2013-11-23,27.3,22.9,14.5,20.3,12.8,5.8,85,66,40,30.87,30.68,14,2,15,0.00
2013-11-24,27.4,20.1,10.0,15.5,10.1,5.9,85,66,46,30.86,30.45,12,2,12,0.00
2013-11-25,37.5,31.6,26.9,24.4,19.9,15.2,78,62,51,30.45,30.25,13,2,13,0.00
2013-11-26,37.2,30.1,21.9,26.2,20.5,9.7,84,68,47,30.48,30.23,17,2,20,0.00
2013-11-27,33.7,24.6,16.3,14.8,11.1,9.0,74,57,39,30.53,30.27,16,2,16,0.00
2013-11-28,41.6,32.6,27.2,25.1,19.9,14.4,69,60,50,30.57,30.25,16,2,18,0.00
2013-11-29,51.8,35.7,23.3,31.7,25.0,17.8,80,66,46,30.58,30.32,12,1,12,0.00
2013-11-30,55.2,42.4,32.8,39.1,33.1,25.3,92,70,54,30.31,30.11,12,2,12,0.00
2013-12-1,56.9,42.9,31.0,40.0,35.8,29.7,96,78,51,30.16,29.91,8,0,8,0.00
2013-12-2,51.8,42.7,34.3,45.0,39.5,32.9,97,89,76,29.91,29.64,14,2,14,0.00
2013-12-3,59.3,47.4,40.6,48.7,43.8,39.4,97,88,64,29.64,29.55,11,2,12,0.00
2013-12-4,48.1,36.2,23.3,47.0,33.4,15.2,97,90,71,30.08,29.52,16,3,17,0.02
2013-12-5,23.3,18.2,15.9,15.5,9.8,7.2,86,69,64,30.47,30.07,16,3,17,0.00
2013-12-6,17.8,14.7,10.3,7.4,2.5,-1.1,68,58,47,30.75,30.45,14,2,15,0.00
2013-12-7,20.0,13.3,4.4,6.2,2.8,-0.6,80,63,48,30.83,30.48,13,2,14,0.00
2013-12-8,23.1,20.5,18.0,21.1,15.3,6.0,92,81,57,30.48,30.06,16,1,16,0.00
2013-12-9,20.2,12.8,10.4,16.9,6.6,2.5,89,76,62,30.49,30.25,13,1,13,0.00
2013-12-10,38.1,23.5,10.9,19.2,12.7,3.9,78,64,45,30.44,30.29,13,3,16,0.00
2013-12-11,26.2,21.2,10.6,21.1,12.0,3.8,83,68,46,30.71,30.31,16,2,16,0.00
2013-12-12,44.9,28.3,10.8,24.9,14.7,4.4,76,58,37,30.69,30.24,16,4,16,0.00
2013-12-13,35.5,32.4,26.4,33.6,29.7,22.6,96,90,76,30.24,29.91,14,1,14,0.17
2013-12-14,34.3,26.4,19.4,33.3,23.4,16.4,96,88,79,30.29,29.93,18,2,18,0.01
2013-12-15,47.4,33.8,18.5,33.5,25.5,16.3,92,73,54,30.29,30.02,9,2,12,0.00
2013-12-16,60.2,42.4,30.1,35.3,29.3,24.6,82,61,33,30.19,30.00,11,1,11,0.00
2013-12-17,45.7,35.7,28.6,31.9,25.8,20.4,89,69,45,30.33,30.19,16,1,16,0.00
2013-12-18,62.2,46.3,29.1,39.0,31.6,22.0,76,58,38,30.28,29.83,24,6,24,0.00
2013-12-19,55.9,53.6,47.8,51.5,46.5,37.9,88,77,55,29.83,29.66,22,4,22,0.00
2013-12-20,55.1,26.9,21.3,50.0,24.3,18.1,94,90,82,29.99,29.68,16,2,16,0.00
2013-12-21,28.0,24.8,21.4,26.1,22.5,18.4,94,91,88,29.99,29.68,14,2,14,0.00
2013-12-22,26.0,21.4,13.3,24.4,18.5,10.4,94,88,83,30.46,29.79,10,1,11,0.00
2013-12-23,14.2,9.8,4.4,10.4,5.0,0.2,90,81,73,30.72,30.45,6,1,8,0.00
2013-12-24,29.7,16.8,1.5,27.4,12.6,-1.2,91,84,70,30.71,30.31,9,1,9,0.00
2013-12-25,39.2,32.3,28.4,29.9,27.3,25.0,92,82,66,30.40,30.33,16,2,16,0.13
2013-12-26,48.0,34.8,22.7,31.3,27.4,20.7,94,76,50,30.40,30.23,19,2,19,0.11
2013-12-27,54.8,39.7,25.9,37.0,30.9,23.8,93,72,42,30.39,30.23,12,2,14,0.00
2013-12-28,55.4,44.8,34.3,33.7,31.1,27.1,80,60,34,30.23,29.92,25,4,25,0.00
2013-12-29,41.4,18.5,10.7,33.1,8.3,-3.5,83,65,45,30.41,29.96,22,3,22,0.00
2013-12-30,29.2,19.0,9.0,16.6,4.9,-4.7,67,54,43,30.42,30.26,15,3,16,0.00
2013-12-31,50.8,34.1,18.2,29.4,22.2,15.1,89,64,40,30.41,30.11,26,3,27,0.00
2014-1-1,40.7,22.6,9.5,25.2,16.3,5.0,87,77,53,30.37,30.07,16,3,17,0.00
2014-1-2,9.3,4.4,2.0,4.8,-0.4,-2.9,83,80,72,30.53,30.37,13,2,14,0.00